createdAt,value
2017-09-29T00:00:54.141Z,94
2017-09-29T00:01:56.525Z,94
2017-09-29T00:02:58.978Z,94
2017-09-29T00:04:01.401Z,94
2017-09-29T00:05:03.776Z,94
2017-09-29T00:06:06.161Z,94
2017-09-29T00:07:08.532Z,94
2017-09-29T00:08:10.983Z,94
2017-09-29T00:09:13.827Z,94
2017-09-29T00:10:16.207Z,94
2017-09-29T00:11:18.712Z,94
2017-09-29T00:12:21.153Z,94
2017-09-29T00:13:23.532Z,94
2017-09-29T00:14:25.961Z,94
2017-09-29T00:15:28.336Z,94
2017-09-29T00:16:30.807Z,94
2017-09-29T00:17:33.236Z,93
2017-09-29T00:18:35.615Z,93
2017-09-29T00:19:37.993Z,93
2017-09-29T00:20:40.373Z,93
2017-09-29T00:21:42.812Z,93
2017-09-29T00:22:45.242Z,93
2017-09-29T00:23:47.950Z,93
2017-09-29T00:24:50.327Z,93
2017-09-29T00:25:52.719Z,93
2017-09-29T00:26:55.161Z,93
2017-09-29T00:27:57.624Z,93
2017-09-29T00:29:00.001Z,93
2017-09-29T00:30:02.378Z,93
2017-09-29T00:31:04.778Z,93
2017-09-29T00:32:07.216Z,93
2017-09-29T00:33:09.641Z,93
2017-09-29T00:34:12.371Z,93
2017-09-29T00:35:14.800Z,93
2017-09-29T00:36:17.627Z,93
2017-09-29T00:37:20.005Z,93
2017-09-29T00:38:22.471Z,93
2017-09-29T00:39:24.852Z,93
2017-09-29T00:40:27.327Z,93
2017-09-29T00:41:29.703Z,93
2017-09-29T00:42:32.255Z,93
2017-09-29T00:43:34.633Z,93
2017-09-29T00:44:37.080Z,93
2017-09-29T00:45:39.465Z,93
2017-09-29T00:46:42.069Z,93
2017-09-29T00:47:44.799Z,93
2017-09-29T00:48:47.266Z,93
2017-09-29T00:49:49.641Z,93
2017-09-29T00:50:52.090Z,93
2017-09-29T00:51:54.467Z,93
2017-09-29T00:52:56.933Z,93
2017-09-29T00:53:59.312Z,93
2017-09-29T00:55:01.696Z,93
2017-09-29T00:56:04.081Z,93
2017-09-29T00:57:06.468Z,93
2017-09-29T00:58:08.839Z,93
2017-09-29T00:59:11.343Z,93
2017-09-29T01:00:13.731Z,93
2017-09-29T01:01:16.184Z,93
2017-09-29T01:02:18.566Z,93
2017-09-29T01:03:21.137Z,93
2017-09-29T01:04:23.509Z,93
2017-09-29T01:05:25.968Z,93
2017-09-29T01:06:28.680Z,93
2017-09-29T01:07:31.715Z,93
2017-09-29T01:08:34.105Z,93
2017-09-29T01:09:36.629Z,93
2017-09-29T01:10:39.004Z,93
2017-09-29T01:11:41.466Z,93
2017-09-29T01:12:44.182Z,93
2017-09-29T01:13:46.631Z,93
2017-09-29T01:14:49.013Z,93
2017-09-29T01:15:51.482Z,93
2017-09-29T01:16:53.850Z,93
2017-09-29T01:17:56.578Z,93
2017-09-29T01:18:58.952Z,93
2017-09-29T01:20:01.340Z,93
2017-09-29T01:21:03.711Z,93
2017-09-29T01:22:06.083Z,93
2017-09-29T01:23:08.480Z,93
2017-09-29T01:24:10.863Z,93
2017-09-29T01:25:13.265Z,93
2017-09-29T01:26:15.660Z,93
2017-09-29T01:27:18.049Z,93
2017-09-29T01:28:20.423Z,93
2017-09-29T01:29:22.848Z,93
2017-09-29T01:30:25.224Z,93
2017-09-29T01:31:27.624Z,93
2017-09-29T01:32:30.018Z,93
2017-09-29T01:33:32.387Z,93
2017-09-29T01:34:34.776Z,93
2017-09-29T01:35:37.159Z,93
2017-09-29T01:36:39.538Z,93
2017-09-29T01:37:41.930Z,93
2017-09-29T01:38:44.318Z,93
2017-09-29T01:39:46.690Z,93
2017-09-29T01:40:49.086Z,93
2017-09-29T01:41:51.512Z,93
2017-09-29T01:42:53.897Z,93
2017-09-29T01:43:56.276Z,93
2017-09-29T01:44:58.653Z,93
2017-09-29T01:46:01.094Z,93
2017-09-29T01:47:03.518Z,93
2017-09-29T01:48:05.938Z,93
2017-09-29T01:49:08.313Z,93
2017-09-29T01:50:10.703Z,93
2017-09-29T01:51:13.086Z,93
2017-09-29T01:52:15.477Z,93
2017-09-29T01:53:17.868Z,93
2017-09-29T01:54:20.597Z,93
2017-09-29T01:55:22.965Z,93
2017-09-29T01:56:25.349Z,93
2017-09-29T01:57:27.724Z,93
2017-09-29T01:58:30.107Z,93
2017-09-29T01:59:32.486Z,93
2017-09-29T02:00:34.871Z,93
2017-09-29T02:01:37.289Z,93
2017-09-29T02:02:39.686Z,93
2017-09-29T02:03:42.106Z,93
2017-09-29T02:04:44.538Z,93
2017-09-29T02:05:46.975Z,93
2017-09-29T02:06:49.402Z,93
2017-09-29T02:07:51.914Z,93
2017-09-29T02:08:54.347Z,93
2017-09-29T02:09:56.767Z,93
2017-09-29T02:10:59.180Z,93
2017-09-29T02:12:01.560Z,94
2017-09-29T02:13:03.937Z,94
2017-09-29T02:14:06.308Z,94
2017-09-29T02:15:08.700Z,94
2017-09-29T02:16:11.430Z,94
2017-09-29T02:17:13.810Z,94
2017-09-29T02:18:16.547Z,94
2017-09-29T02:19:18.936Z,94
2017-09-29T02:20:21.671Z,94
2017-09-29T02:21:24.046Z,94
2017-09-29T02:22:26.428Z,94
2017-09-29T02:23:28.800Z,94
2017-09-29T02:24:31.181Z,94
2017-09-29T02:25:33.561Z,94
2017-09-29T02:26:35.952Z,94
2017-09-29T02:27:38.320Z,94
2017-09-29T02:28:40.712Z,94
2017-09-29T02:29:43.090Z,94
2017-09-29T02:30:45.474Z,94
2017-09-29T02:31:47.849Z,94
2017-09-29T02:32:50.573Z,94
2017-09-29T02:33:53.309Z,94
2017-09-29T02:34:55.718Z,94
2017-09-29T02:35:58.120Z,94
2017-09-29T02:37:00.530Z,94
2017-09-29T02:38:03.256Z,94
2017-09-29T02:39:05.649Z,94
2017-09-29T02:40:08.030Z,94
2017-09-29T02:41:10.397Z,94
2017-09-29T02:42:12.777Z,94
2017-09-29T02:43:15.157Z,94
2017-09-29T02:44:17.551Z,94
2017-09-29T02:45:19.934Z,94
2017-09-29T02:46:22.678Z,94
2017-09-29T02:47:25.059Z,94
2017-09-29T02:48:27.457Z,94
2017-09-29T02:49:29.836Z,94
2017-09-29T02:50:32.590Z,94
2017-09-29T02:51:35.316Z,94
2017-09-29T02:52:37.729Z,94
2017-09-29T02:53:40.108Z,94
2017-09-29T02:54:42.495Z,94
2017-09-29T02:55:44.884Z,94
2017-09-29T02:56:47.263Z,94
2017-09-29T02:57:49.653Z,94
2017-09-29T02:58:52.397Z,94
2017-09-29T02:59:54.782Z,94
2017-09-29T03:00:57.162Z,94
2017-09-29T03:01:59.542Z,94
2017-09-29T03:03:01.943Z,94
2017-09-29T03:04:04.325Z,94
2017-09-29T03:05:06.700Z,94
2017-09-29T03:06:09.442Z,94
2017-09-29T03:07:11.829Z,94
2017-09-29T03:08:14.229Z,94
2017-09-29T03:09:16.619Z,94
2017-09-29T03:10:19.014Z,93
2017-09-29T03:11:21.780Z,93
2017-09-29T03:12:24.147Z,94
2017-09-29T03:13:26.527Z,93
2017-09-29T03:14:28.930Z,93
2017-09-29T03:15:31.309Z,94
2017-09-29T03:16:33.698Z,94
2017-09-29T03:17:36.090Z,93
2017-09-29T03:18:38.506Z,93
2017-09-29T03:19:40.912Z,93
2017-09-29T03:20:43.283Z,93
2017-09-29T03:21:45.656Z,93
2017-09-29T03:22:48.036Z,93
2017-09-29T03:23:50.426Z,94
2017-09-29T03:24:52.807Z,94
2017-09-29T03:25:55.188Z,94
2017-09-29T03:26:57.552Z,94
2017-09-29T03:27:59.948Z,94
2017-09-29T03:29:02.335Z,94
2017-09-29T03:30:04.758Z,94
2017-09-29T03:31:07.195Z,94
2017-09-29T03:32:09.574Z,94
2017-09-29T03:33:11.960Z,94
2017-09-29T03:34:14.355Z,94
2017-09-29T03:35:16.766Z,94
2017-09-29T03:36:19.198Z,94
2017-09-29T03:38:12.926Z,94
2017-09-29T03:39:15.374Z,94
2017-09-29T03:40:17.805Z,94
2017-09-29T03:41:20.240Z,94
2017-09-29T03:42:22.685Z,94
2017-09-29T03:43:25.125Z,94
2017-09-29T03:44:27.574Z,94
2017-09-29T03:45:30.011Z,94
2017-09-29T03:46:32.446Z,94
2017-09-29T03:47:34.882Z,94
2017-09-29T03:48:37.320Z,94
2017-09-29T03:49:39.761Z,94
2017-09-29T03:50:42.194Z,94
2017-09-29T03:51:44.640Z,94
2017-09-29T03:52:47.069Z,94
2017-09-29T03:53:49.496Z,94
2017-09-29T03:54:51.934Z,94
2017-09-29T03:55:54.359Z,94
2017-09-29T03:56:56.792Z,94
2017-09-29T03:57:59.234Z,94
2017-09-29T03:59:01.670Z,94
2017-09-29T04:00:04.105Z,94
2017-09-29T04:01:06.543Z,94
2017-09-29T04:02:08.966Z,94
2017-09-29T04:03:11.412Z,94
2017-09-29T04:04:13.853Z,94
2017-09-29T04:05:16.277Z,94
2017-09-29T04:06:18.710Z,94
2017-09-29T04:07:21.143Z,94
2017-09-29T04:08:23.574Z,94
2017-09-29T04:09:26.007Z,94
2017-09-29T04:10:28.439Z,94
2017-09-29T04:11:31.207Z,94
2017-09-29T04:12:33.637Z,94
2017-09-29T04:13:36.066Z,94
2017-09-29T04:14:38.499Z,94
2017-09-29T04:15:40.934Z,94
2017-09-29T04:16:43.374Z,94
2017-09-29T04:17:45.804Z,94
2017-09-29T04:18:48.242Z,94
2017-09-29T04:19:50.679Z,94
2017-09-29T04:20:53.461Z,94
2017-09-29T04:21:55.895Z,94
2017-09-29T04:22:58.323Z,94
2017-09-29T04:24:00.754Z,94
2017-09-29T04:25:03.183Z,94
2017-09-29T04:26:05.614Z,95
2017-09-29T04:27:08.034Z,95
2017-09-29T04:28:10.469Z,95
2017-09-29T04:29:12.914Z,95
2017-09-29T04:30:15.350Z,95
2017-09-29T04:31:17.778Z,95
2017-09-29T04:32:20.214Z,95
2017-09-29T04:33:22.653Z,95
2017-09-29T04:34:25.085Z,95
2017-09-29T04:35:27.517Z,95
2017-09-29T04:36:29.942Z,95
2017-09-29T04:37:32.379Z,95
2017-09-29T04:38:34.827Z,95
2017-09-29T04:39:37.592Z,95
2017-09-29T04:40:40.019Z,95
2017-09-29T04:41:42.455Z,95
2017-09-29T04:42:44.897Z,95
2017-09-29T04:43:47.339Z,95
2017-09-29T04:44:50.126Z,95
2017-09-29T04:45:52.563Z,95
2017-09-29T04:46:55.007Z,95
2017-09-29T04:47:57.444Z,95
2017-09-29T04:48:59.876Z,95
2017-09-29T04:50:02.297Z,95
2017-09-29T04:51:04.749Z,95
2017-09-29T04:52:07.179Z,95
2017-09-29T04:53:09.610Z,95
2017-09-29T04:54:12.047Z,95
2017-09-29T04:55:14.483Z,95
2017-09-29T04:56:16.917Z,95
2017-09-29T04:57:19.682Z,95
2017-09-29T04:58:22.119Z,95
2017-09-29T04:59:24.554Z,95
2017-09-29T05:00:26.999Z,95
2017-09-29T05:01:29.764Z,95
2017-09-29T05:02:32.254Z,95
2017-09-29T05:03:34.680Z,95
2017-09-29T05:04:37.110Z,95
2017-09-29T05:05:39.544Z,95
2017-09-29T05:06:41.972Z,95
2017-09-29T05:07:44.401Z,95
2017-09-29T05:08:46.850Z,95
2017-09-29T05:09:49.275Z,95
2017-09-29T05:10:51.710Z,95
2017-09-29T05:11:54.142Z,95
2017-09-29T05:12:56.587Z,95
2017-09-29T05:13:59.025Z,95
2017-09-29T05:15:01.452Z,95
2017-09-29T05:16:03.879Z,95
2017-09-29T05:17:06.319Z,95
2017-09-29T05:18:08.749Z,95
2017-09-29T05:19:11.177Z,95
2017-09-29T05:20:13.601Z,95
2017-09-29T05:21:16.032Z,95
2017-09-29T05:22:18.468Z,95
2017-09-29T05:23:20.909Z,95
2017-09-29T05:24:23.340Z,95
2017-09-29T05:25:25.774Z,95
2017-09-29T05:26:28.221Z,95
2017-09-29T05:27:30.658Z,95
2017-09-29T05:28:33.091Z,95
2017-09-29T05:29:35.530Z,95
2017-09-29T05:30:37.970Z,95
2017-09-29T05:31:40.399Z,95
2017-09-29T05:32:42.833Z,95
2017-09-29T05:33:45.601Z,95
2017-09-29T05:34:48.030Z,95
2017-09-29T05:35:50.472Z,95
2017-09-29T05:36:52.901Z,95
2017-09-29T05:37:55.335Z,95
2017-09-29T05:38:57.772Z,95
2017-09-29T05:40:00.206Z,95
2017-09-29T05:41:02.643Z,95
2017-09-29T05:42:05.086Z,95
2017-09-29T05:43:07.520Z,95
2017-09-29T05:44:09.955Z,95
2017-09-29T05:45:12.733Z,95
2017-09-29T05:46:15.161Z,95
2017-09-29T05:47:17.596Z,95
2017-09-29T05:48:20.044Z,95
2017-09-29T05:49:23.157Z,95
2017-09-29T05:50:25.597Z,95
2017-09-29T05:51:28.031Z,95
2017-09-29T05:52:30.470Z,95
2017-09-29T05:53:32.903Z,95
2017-09-29T05:54:35.362Z,95
2017-09-29T05:55:37.794Z,95
2017-09-29T05:56:40.233Z,95
2017-09-29T05:57:42.663Z,95
2017-09-29T05:58:45.103Z,95
2017-09-29T05:59:47.527Z,95
2017-09-29T06:00:49.967Z,95
2017-09-29T06:01:52.747Z,95
2017-09-29T06:02:55.177Z,95
2017-09-29T06:03:57.611Z,95
2017-09-29T06:05:00.049Z,95
2017-09-29T06:06:02.832Z,95
2017-09-29T06:07:05.283Z,95
2017-09-29T06:08:07.713Z,95
2017-09-29T06:09:10.153Z,95
2017-09-29T06:10:12.585Z,95
2017-09-29T06:11:15.023Z,95
2017-09-29T06:12:17.791Z,95
2017-09-29T06:13:20.225Z,95
2017-09-29T06:14:22.671Z,95
2017-09-29T06:15:25.088Z,95
2017-09-29T06:16:27.529Z,95
2017-09-29T06:17:29.963Z,95
2017-09-29T06:18:32.407Z,95
2017-09-29T06:19:34.861Z,95
2017-09-29T06:20:37.305Z,94
2017-09-29T06:21:39.732Z,94
2017-09-29T06:22:42.180Z,94
2017-09-29T06:23:44.620Z,94
2017-09-29T06:24:47.068Z,94
2017-09-29T06:25:49.502Z,94
2017-09-29T06:26:51.937Z,94
2017-09-29T06:27:54.363Z,94
2017-09-29T06:28:56.795Z,94
2017-09-29T06:29:59.226Z,94
2017-09-29T06:31:01.683Z,94
2017-09-29T06:32:04.458Z,94
2017-09-29T06:33:06.897Z,94
2017-09-29T06:34:09.692Z,94
2017-09-29T06:35:12.502Z,94
2017-09-29T06:36:14.936Z,93
2017-09-29T06:37:17.387Z,93
2017-09-29T06:38:20.179Z,93
2017-09-29T06:39:22.627Z,93
2017-09-29T06:40:25.046Z,93
2017-09-29T06:41:27.836Z,93
2017-09-29T06:42:30.283Z,93
2017-09-29T06:43:33.413Z,93
2017-09-29T06:44:35.861Z,93
2017-09-29T06:45:38.296Z,93
2017-09-29T06:46:40.732Z,93
2017-09-29T06:47:43.177Z,93
2017-09-29T06:48:45.616Z,92
2017-09-29T06:49:48.039Z,92
2017-09-29T06:50:50.474Z,92
2017-09-29T06:51:52.913Z,92
2017-09-29T06:52:55.348Z,92
2017-09-29T06:53:57.787Z,92
2017-09-29T06:55:00.217Z,92
2017-09-29T06:56:02.642Z,92
2017-09-29T06:57:05.087Z,92
2017-09-29T06:58:07.516Z,92
2017-09-29T06:59:10.287Z,92
2017-09-29T07:00:12.727Z,92
2017-09-29T07:01:15.163Z,91
2017-09-29T07:02:17.589Z,91
2017-09-29T07:03:20.035Z,91
2017-09-29T07:04:22.465Z,91
2017-09-29T07:05:24.903Z,91
2017-09-29T07:06:27.352Z,91
2017-09-29T07:07:29.780Z,91
2017-09-29T07:08:32.208Z,91
2017-09-29T07:09:34.639Z,91
2017-09-29T07:10:37.068Z,90
2017-09-29T07:11:39.505Z,90
2017-09-29T07:12:41.941Z,90
2017-09-29T07:13:44.386Z,90
2017-09-29T07:14:46.807Z,90
2017-09-29T07:15:49.253Z,90
2017-09-29T07:16:51.690Z,90
2017-09-29T07:17:54.126Z,90
2017-09-29T07:18:56.560Z,90
2017-09-29T07:19:59.334Z,89
2017-09-29T07:21:01.766Z,89
2017-09-29T07:22:04.215Z,89
2017-09-29T07:23:06.640Z,89
2017-09-29T07:24:09.420Z,89
2017-09-29T07:25:11.852Z,88
2017-09-29T07:26:14.280Z,87
2017-09-29T07:27:16.707Z,87
2017-09-29T07:28:19.150Z,87
2017-09-29T07:29:21.568Z,87
2017-09-29T07:30:24.021Z,87
2017-09-29T07:31:26.460Z,87
2017-09-29T07:32:28.897Z,86
2017-09-29T07:33:31.676Z,85
2017-09-29T07:34:34.114Z,86
2017-09-29T07:35:36.546Z,86
2017-09-29T07:36:38.986Z,86
2017-09-29T07:37:41.427Z,86
2017-09-29T07:38:43.862Z,86
2017-09-29T07:39:46.282Z,86
2017-09-29T07:40:48.723Z,86
2017-09-29T07:41:51.172Z,86
2017-09-29T07:42:53.608Z,86
2017-09-29T07:43:56.046Z,86
2017-09-29T07:44:58.818Z,86
2017-09-29T07:46:01.248Z,86
2017-09-29T07:47:03.696Z,86
2017-09-29T07:48:06.124Z,86
2017-09-29T07:49:08.549Z,86
2017-09-29T07:50:10.992Z,86
2017-09-29T07:51:13.791Z,86
2017-09-29T07:52:16.226Z,85
2017-09-29T07:53:18.661Z,85
2017-09-29T07:54:21.092Z,85
2017-09-29T07:55:23.525Z,84
2017-09-29T07:56:25.974Z,84
2017-09-29T07:57:28.407Z,85
2017-09-29T07:58:30.837Z,85
2017-09-29T07:59:33.279Z,85
2017-09-29T08:00:35.713Z,85
2017-09-29T08:01:38.501Z,85
2017-09-29T08:02:40.938Z,85
2017-09-29T08:03:43.361Z,85
2017-09-29T08:04:45.821Z,86
2017-09-29T08:05:48.263Z,85
2017-09-29T08:06:50.709Z,85
2017-09-29T08:07:53.141Z,85
2017-09-29T08:08:55.574Z,85
2017-09-29T08:09:58.018Z,85
2017-09-29T08:11:00.445Z,85
2017-09-29T08:12:02.888Z,85
2017-09-29T08:13:05.327Z,85
2017-09-29T08:14:07.753Z,84
2017-09-29T08:15:10.195Z,84
2017-09-29T08:16:12.631Z,85
2017-09-29T08:17:15.066Z,85
2017-09-29T08:18:17.514Z,85
2017-09-29T08:19:19.956Z,85
2017-09-29T08:20:22.398Z,84
2017-09-29T08:21:24.840Z,84
2017-09-29T08:22:27.272Z,84
2017-09-29T08:23:29.704Z,84
2017-09-29T08:24:32.141Z,84
2017-09-29T08:25:34.581Z,85
2017-09-29T08:26:37.024Z,84
2017-09-29T08:27:39.455Z,84
2017-09-29T08:28:41.891Z,83
2017-09-29T08:29:44.333Z,83
2017-09-29T08:30:46.772Z,83
2017-09-29T08:31:49.210Z,83
2017-09-29T08:32:51.647Z,82
2017-09-29T08:33:54.069Z,82
2017-09-29T08:34:56.520Z,82
2017-09-29T08:35:58.959Z,81
2017-09-29T08:37:01.408Z,81
2017-09-29T08:38:03.846Z,82
2017-09-29T08:39:06.273Z,82
2017-09-29T08:40:08.718Z,81
2017-09-29T08:41:11.156Z,81
2017-09-29T08:42:13.598Z,81
2017-09-29T08:43:16.034Z,81
2017-09-29T08:44:18.473Z,81
2017-09-29T08:45:20.911Z,81
2017-09-29T08:46:23.696Z,79
2017-09-29T08:47:26.133Z,79
2017-09-29T08:48:28.933Z,78
2017-09-29T08:49:31.375Z,77
2017-09-29T08:50:33.818Z,77
2017-09-29T08:51:36.266Z,77
2017-09-29T08:52:38.704Z,77
2017-09-29T08:53:41.139Z,77
2017-09-29T08:54:43.592Z,77
2017-09-29T08:55:46.034Z,77
2017-09-29T08:56:49.175Z,78
2017-09-29T08:57:51.615Z,78
2017-09-29T08:58:54.048Z,77
2017-09-29T08:59:56.494Z,78
2017-09-29T09:00:58.949Z,76
2017-09-29T09:02:01.384Z,76
2017-09-29T09:03:03.826Z,77
2017-09-29T09:04:06.265Z,75
2017-09-29T09:05:08.713Z,74
2017-09-29T09:06:11.163Z,74
2017-09-29T09:07:13.611Z,73
2017-09-29T09:08:16.058Z,73
2017-09-29T09:09:18.494Z,73
2017-09-29T09:10:20.950Z,74
2017-09-29T09:11:23.392Z,74
2017-09-29T09:12:25.824Z,74
2017-09-29T09:13:28.271Z,73
2017-09-29T09:14:30.713Z,73
2017-09-29T09:15:33.147Z,73
2017-09-29T09:16:35.596Z,72
2017-09-29T09:17:38.033Z,72
2017-09-29T09:18:41.082Z,72
2017-09-29T09:19:43.946Z,72
2017-09-29T09:20:46.386Z,73
2017-09-29T09:21:48.829Z,71
2017-09-29T09:22:51.876Z,71
2017-09-29T09:23:54.731Z,70
2017-09-29T09:24:57.188Z,71
2017-09-29T09:25:59.634Z,71
2017-09-29T09:27:02.062Z,71
2017-09-29T09:28:04.510Z,71
2017-09-29T09:29:06.956Z,71
2017-09-29T09:30:09.751Z,71
2017-09-29T09:31:12.195Z,70
2017-09-29T09:32:14.644Z,70
2017-09-29T09:33:17.093Z,70
2017-09-29T09:34:19.548Z,69
2017-09-29T09:35:22.001Z,69
2017-09-29T09:36:24.438Z,69
2017-09-29T09:37:26.894Z,68
2017-09-29T09:38:29.342Z,68
2017-09-29T09:39:31.788Z,69
2017-09-29T09:40:34.230Z,68
2017-09-29T09:41:36.688Z,68
2017-09-29T09:42:39.132Z,68
2017-09-29T09:43:41.599Z,67
2017-09-29T09:44:44.055Z,67
2017-09-29T09:45:46.501Z,66
2017-09-29T09:46:48.943Z,66
2017-09-29T09:47:51.399Z,66
2017-09-29T09:48:53.853Z,67
2017-09-29T09:49:56.291Z,67
2017-09-29T09:50:58.723Z,66
2017-09-29T09:52:01.182Z,66
2017-09-29T09:53:03.629Z,66
2017-09-29T09:54:06.422Z,65
2017-09-29T09:55:08.871Z,65
2017-09-29T09:56:11.310Z,66
2017-09-29T09:57:13.753Z,65
2017-09-29T09:58:16.220Z,66
2017-09-29T09:59:18.655Z,65
2017-09-29T10:00:21.106Z,66
2017-09-29T10:01:23.554Z,66
2017-09-29T10:02:26.007Z,65
2017-09-29T10:03:28.463Z,65
2017-09-29T10:04:31.252Z,65
2017-09-29T10:05:33.702Z,65
2017-09-29T10:06:36.141Z,65
2017-09-29T10:07:38.588Z,64
2017-09-29T10:08:41.042Z,65
2017-09-29T10:09:43.490Z,66
2017-09-29T10:10:45.955Z,64
2017-09-29T10:11:48.398Z,65
2017-09-29T10:12:50.850Z,64
2017-09-29T10:13:53.293Z,64
2017-09-29T10:14:56.075Z,64
2017-09-29T10:15:58.525Z,65
2017-09-29T10:17:00.967Z,65
2017-09-29T10:18:03.406Z,63
2017-09-29T10:19:05.858Z,64
2017-09-29T10:20:08.301Z,63
2017-09-29T10:21:10.751Z,64
2017-09-29T10:22:13.194Z,64
2017-09-29T10:23:15.648Z,63
2017-09-29T10:24:18.106Z,63
2017-09-29T10:25:20.553Z,63
2017-09-29T10:26:23.333Z,64
2017-09-29T10:27:25.787Z,64
2017-09-29T10:28:28.230Z,63
2017-09-29T10:29:30.685Z,64
2017-09-29T10:30:33.146Z,63
2017-09-29T10:31:35.586Z,63
2017-09-29T10:32:38.033Z,61
2017-09-29T10:33:40.489Z,61
2017-09-29T10:34:43.291Z,61
2017-09-29T10:35:45.733Z,61
2017-09-29T10:36:48.187Z,62
2017-09-29T10:37:50.643Z,61
2017-09-29T10:38:53.092Z,60
2017-09-29T10:39:55.546Z,61
2017-09-29T10:40:58.002Z,61
2017-09-29T10:42:00.436Z,61
2017-09-29T10:43:02.907Z,61
2017-09-29T10:44:05.353Z,62
2017-09-29T10:45:07.789Z,60
2017-09-29T10:46:10.239Z,61
2017-09-29T10:47:12.691Z,60
2017-09-29T10:48:15.144Z,61
2017-09-29T10:49:17.602Z,61
2017-09-29T10:50:20.371Z,61
2017-09-29T10:51:22.822Z,61
2017-09-29T10:52:25.283Z,61
2017-09-29T10:53:27.735Z,61
2017-09-29T10:54:30.521Z,60
2017-09-29T10:55:32.972Z,61
2017-09-29T10:56:35.420Z,60
2017-09-29T10:57:37.883Z,60
2017-09-29T10:58:40.679Z,61
2017-09-29T10:59:43.123Z,61
2017-09-29T11:00:45.919Z,60
2017-09-29T11:01:48.379Z,61
2017-09-29T11:02:50.824Z,60
2017-09-29T11:03:53.275Z,60
2017-09-29T11:04:55.727Z,61
2017-09-29T11:05:58.176Z,60
2017-09-29T11:07:00.638Z,61
2017-09-29T11:08:03.088Z,59
2017-09-29T11:09:05.533Z,59
2017-09-29T11:10:07.983Z,60
2017-09-29T11:11:10.433Z,60
2017-09-29T11:12:12.880Z,59
2017-09-29T11:13:15.332Z,60
2017-09-29T11:14:17.779Z,59
2017-09-29T11:15:20.237Z,58
2017-09-29T11:16:22.697Z,59
2017-09-29T11:17:25.146Z,59
2017-09-29T11:18:27.591Z,58
2017-09-29T11:19:30.043Z,58
2017-09-29T11:20:32.487Z,59
2017-09-29T11:21:34.983Z,59
2017-09-29T11:22:37.461Z,59
2017-09-29T11:23:39.916Z,59
2017-09-29T11:24:42.372Z,59
2017-09-29T11:25:44.845Z,60
2017-09-29T11:26:47.314Z,59
2017-09-29T11:27:49.765Z,59
2017-09-29T11:28:52.219Z,60
2017-09-29T11:29:54.664Z,59
2017-09-29T11:30:57.120Z,58
2017-09-29T11:31:59.572Z,59
2017-09-29T11:33:02.010Z,57
2017-09-29T11:34:04.483Z,57
2017-09-29T11:35:06.938Z,56
2017-09-29T11:36:09.755Z,57
2017-09-29T11:37:12.545Z,56
2017-09-29T11:38:15.009Z,56
2017-09-29T11:39:17.459Z,56
2017-09-29T11:40:19.893Z,56
2017-09-29T11:41:22.350Z,56
2017-09-29T11:42:24.798Z,56
2017-09-29T11:43:27.249Z,55
2017-09-29T11:44:30.043Z,56
2017-09-29T11:45:33.079Z,57
2017-09-29T11:47:40.437Z,57
2017-09-29T11:48:42.901Z,56
2017-09-29T11:49:45.349Z,56
2017-09-29T11:50:47.810Z,56
2017-09-29T11:51:50.264Z,55
2017-09-29T11:52:52.716Z,55
2017-09-29T11:53:55.166Z,55
2017-09-29T11:54:57.624Z,55
2017-09-29T11:56:00.073Z,55
2017-09-29T11:57:02.873Z,55
2017-09-29T11:58:05.313Z,54
2017-09-29T11:59:07.760Z,55
2017-09-29T12:00:10.549Z,55
2017-09-29T12:01:13.007Z,56
2017-09-29T12:02:15.454Z,56
2017-09-29T12:03:17.902Z,57
2017-09-29T12:04:20.708Z,58
2017-09-29T12:05:23.481Z,57
2017-09-29T12:06:25.941Z,55
2017-09-29T12:07:28.398Z,55
2017-09-29T12:08:30.846Z,56
2017-09-29T12:09:33.298Z,55
2017-09-29T12:10:35.743Z,54
2017-09-29T12:11:38.194Z,55
2017-09-29T12:12:40.659Z,56
2017-09-29T12:13:43.108Z,56
2017-09-29T12:14:45.563Z,55
2017-09-29T12:15:48.738Z,55
2017-09-29T12:16:51.199Z,54
2017-09-29T12:17:53.661Z,54
2017-09-29T12:18:56.114Z,54
2017-09-29T12:19:58.568Z,55
2017-09-29T12:21:01.029Z,55
2017-09-29T12:22:03.485Z,54
2017-09-29T12:23:05.933Z,54
2017-09-29T12:24:08.385Z,55
2017-09-29T12:25:10.826Z,55
2017-09-29T12:26:13.285Z,54
2017-09-29T12:27:15.730Z,54
2017-09-29T12:28:18.530Z,55
2017-09-29T12:29:20.989Z,55
2017-09-29T12:30:23.445Z,55
2017-09-29T12:31:25.903Z,58
2017-09-29T12:32:28.365Z,56
2017-09-29T12:33:30.810Z,57
2017-09-29T12:34:33.268Z,57
2017-09-29T12:35:35.723Z,56
2017-09-29T12:36:38.173Z,54
2017-09-29T12:37:40.625Z,55
2017-09-29T12:38:43.092Z,56
2017-09-29T12:39:45.533Z,55
2017-09-29T12:40:48.353Z,55
2017-09-29T12:41:50.815Z,55
2017-09-29T12:42:53.265Z,55
2017-09-29T12:43:56.067Z,54
2017-09-29T12:44:58.525Z,55
2017-09-29T12:46:00.986Z,55
2017-09-29T12:47:03.428Z,56
2017-09-29T12:48:05.876Z,57
2017-09-29T12:49:08.327Z,56
2017-09-29T12:50:10.793Z,59
2017-09-29T12:51:13.240Z,56
2017-09-29T12:52:15.688Z,56
2017-09-29T12:53:18.146Z,55
2017-09-29T12:54:20.594Z,55
2017-09-29T12:55:23.053Z,55
2017-09-29T12:56:25.504Z,56
2017-09-29T12:57:27.942Z,55
2017-09-29T12:58:30.402Z,55
2017-09-29T12:59:32.863Z,55
2017-09-29T13:00:35.313Z,55
2017-09-29T13:01:37.763Z,55
2017-09-29T13:02:40.212Z,56
2017-09-29T13:03:42.663Z,55
2017-09-29T13:04:45.119Z,55
2017-09-29T13:05:47.561Z,56
2017-09-29T13:06:50.014Z,55
2017-09-29T13:07:52.464Z,55
2017-09-29T13:08:54.916Z,57
2017-09-29T13:09:57.364Z,56
2017-09-29T13:10:59.823Z,57
2017-09-29T13:12:02.259Z,56
2017-09-29T13:13:04.718Z,57
2017-09-29T13:14:07.167Z,56
2017-09-29T13:15:09.617Z,56
2017-09-29T13:16:12.066Z,56
2017-09-29T13:17:14.512Z,57
2017-09-29T13:18:16.964Z,57
2017-09-29T13:19:19.408Z,57
2017-09-29T13:20:21.859Z,56
2017-09-29T13:21:24.651Z,56
2017-09-29T13:22:27.098Z,56
2017-09-29T13:23:29.560Z,59
2017-09-29T13:24:32.013Z,58
2017-09-29T13:25:34.459Z,57
2017-09-29T13:26:36.911Z,57
2017-09-29T13:27:39.367Z,58
2017-09-29T13:28:41.813Z,59
2017-09-29T13:29:44.273Z,60
2017-09-29T13:30:46.713Z,58
2017-09-29T13:31:49.162Z,58
2017-09-29T13:32:51.619Z,59
2017-09-29T13:33:54.068Z,58
2017-09-29T13:34:56.515Z,58
2017-09-29T13:35:58.980Z,59
2017-09-29T13:37:01.791Z,58
2017-09-29T13:38:04.238Z,58
2017-09-29T13:39:06.700Z,59
2017-09-29T13:40:09.158Z,59
2017-09-29T13:41:11.610Z,58
2017-09-29T13:42:14.063Z,58
2017-09-29T13:43:16.517Z,59
2017-09-29T13:44:18.969Z,58
2017-09-29T13:45:21.437Z,58
2017-09-29T13:46:24.556Z,58
2017-09-29T13:47:27.000Z,58
2017-09-29T13:48:29.453Z,58
2017-09-29T13:49:32.253Z,59
2017-09-29T13:50:35.034Z,59
2017-09-29T13:51:37.482Z,61
2017-09-29T13:52:39.944Z,62
2017-09-29T13:53:42.395Z,61
2017-09-29T13:54:44.857Z,60
2017-09-29T13:55:47.307Z,59
2017-09-29T13:56:49.753Z,60
2017-09-29T13:57:52.216Z,59
2017-09-29T13:58:55.001Z,59
2017-09-29T13:59:57.454Z,60
2017-09-29T14:00:59.897Z,61
2017-09-29T14:02:02.352Z,61
2017-09-29T14:03:05.499Z,60
2017-09-29T14:04:07.983Z,62
2017-09-29T14:05:10.440Z,62
2017-09-29T14:06:12.883Z,62
2017-09-29T14:07:15.341Z,60
2017-09-29T14:08:17.803Z,60
2017-09-29T14:09:20.280Z,59
2017-09-29T14:10:22.864Z,59
2017-09-29T14:11:25.294Z,59
2017-09-29T14:12:27.762Z,59
2017-09-29T14:13:30.243Z,61
2017-09-29T14:14:32.719Z,60
2017-09-29T14:15:35.172Z,61
2017-09-29T14:16:37.652Z,61
2017-09-29T14:17:40.142Z,62
2017-09-29T14:18:42.634Z,60
2017-09-29T14:19:45.101Z,61
2017-09-29T14:20:47.552Z,61
2017-09-29T14:21:50.015Z,61
2017-09-29T14:22:52.825Z,61
2017-09-29T14:23:55.273Z,61
2017-09-29T14:24:57.732Z,60
2017-09-29T14:26:00.250Z,59
2017-09-29T14:27:03.064Z,60
2017-09-29T14:28:05.530Z,60
2017-09-29T14:29:07.977Z,59
2017-09-29T14:30:10.417Z,59
2017-09-29T14:31:12.873Z,60
2017-09-29T14:32:15.327Z,59
2017-09-29T14:33:17.777Z,59
2017-09-29T14:34:20.226Z,59
2017-09-29T14:35:22.689Z,59
2017-09-29T14:36:25.142Z,60
2017-09-29T14:37:27.951Z,61
2017-09-29T14:38:30.744Z,61
2017-09-29T14:39:33.561Z,61
2017-09-29T14:40:36.150Z,60
2017-09-29T14:41:38.824Z,60
2017-09-29T14:42:41.895Z,60
2017-09-29T14:43:44.540Z,62
2017-09-29T14:44:47.195Z,62
2017-09-29T14:45:50.208Z,62
2017-09-29T14:46:55.802Z,62
2017-09-29T14:47:58.309Z,61
2017-09-29T14:49:00.748Z,61
2017-09-29T14:50:03.191Z,61
2017-09-29T14:51:05.646Z,61
2017-09-29T14:52:08.089Z,61
2017-09-29T14:53:10.538Z,62